createdAt,value
2023-12-14T00:01:03.425Z,89.90
2023-12-14T00:03:45.574Z,89.91
2023-12-14T00:06:20.738Z,89.92
2023-12-14T00:08:55.580Z,89.94
2023-12-14T00:11:31.812Z,89.95
2023-12-14T00:14:07.134Z,89.96
2023-12-14T00:16:41.988Z,89.97
2023-12-14T00:19:16.818Z,89.98
2023-12-14T00:21:51.891Z,90.00
2023-12-14T00:24:27.498Z,90.01
2023-12-14T00:27:02.355Z,90.03
2023-12-14T00:29:37.140Z,90.06
2023-12-14T00:32:13.061Z,90.08
2023-12-14T00:34:47.971Z,90.09
2023-12-14T00:37:22.855Z,90.11
2023-12-14T00:39:58.241Z,90.12
2023-12-14T00:42:33.168Z,90.14
2023-12-14T00:45:10.009Z,90.16
2023-12-14T00:47:44.754Z,90.18
2023-12-14T00:50:19.783Z,90.20
2023-12-14T00:52:54.640Z,90.23
2023-12-14T00:55:29.769Z,90.25
2023-12-14T00:58:04.796Z,90.26
2023-12-14T01:00:39.643Z,90.28
2023-12-14T01:03:15.443Z,90.29
2023-12-14T01:05:51.093Z,90.29
2023-12-14T01:08:25.870Z,90.30
2023-12-14T01:11:00.581Z,90.30
2023-12-14T01:13:35.509Z,90.30
2023-12-14T01:16:11.985Z,90.30
2023-12-14T01:18:46.964Z,90.30
2023-12-14T01:21:21.686Z,90.29
2023-12-14T01:23:56.383Z,90.29
2023-12-14T01:26:31.128Z,90.29
2023-12-14T01:29:05.981Z,90.27
2023-12-14T01:31:40.754Z,90.28
2023-12-14T01:34:16.821Z,90.27
2023-12-14T01:36:51.663Z,90.28
2023-12-14T01:39:26.643Z,90.28
2023-12-14T01:42:01.394Z,90.30
2023-12-14T01:44:36.136Z,90.30
2023-12-14T01:47:11.205Z,90.29
2023-12-14T01:49:46.171Z,90.30
2023-12-14T01:52:20.849Z,90.30
2023-12-14T01:54:57.165Z,90.29
2023-12-14T01:57:31.910Z,90.28
2023-12-14T02:00:08.487Z,90.28
2023-12-14T02:02:43.181Z,90.29
2023-12-14T02:05:17.971Z,90.29
2023-12-14T02:07:52.835Z,90.29
2023-12-14T02:10:27.504Z,90.30
2023-12-14T02:13:03.398Z,90.30
2023-12-14T02:15:38.235Z,90.31
2023-12-14T02:18:13.080Z,90.32
2023-12-14T02:20:47.916Z,90.33
2023-12-14T02:23:22.568Z,90.35
2023-12-14T02:25:57.410Z,90.37
2023-12-14T02:28:32.151Z,90.39
2023-12-14T02:31:07.772Z,90.42
2023-12-14T02:33:42.690Z,90.45
2023-12-14T02:36:17.625Z,90.47
2023-12-14T02:38:52.532Z,90.47
2023-12-14T02:41:27.415Z,90.45
2023-12-14T02:44:02.093Z,90.45
2023-12-14T02:46:36.859Z,90.46
2023-12-14T02:49:11.996Z,90.46
2023-12-14T02:51:46.750Z,90.46
2023-12-14T02:54:21.487Z,90.47
2023-12-14T02:56:56.756Z,90.48
2023-12-14T02:59:31.662Z,90.47
2023-12-14T03:02:07.346Z,90.48
2023-12-14T03:04:44.573Z,90.48
2023-12-14T03:07:20.448Z,90.48
2023-12-14T03:09:55.152Z,90.49
2023-12-14T03:12:29.987Z,90.49
2023-12-14T03:15:05.173Z,90.49
2023-12-14T03:17:41.776Z,90.47
2023-12-14T03:20:19.749Z,90.45
2023-12-14T03:22:55.187Z,90.45
2023-12-14T03:25:30.073Z,90.47
2023-12-14T03:28:05.176Z,90.47
2023-12-14T03:30:39.991Z,90.47
2023-12-14T03:33:15.081Z,90.46
2023-12-14T03:35:49.798Z,90.46
2023-12-14T03:38:24.589Z,90.47
2023-12-14T03:40:59.410Z,90.47
2023-12-14T03:43:34.269Z,90.49
2023-12-14T03:46:09.759Z,90.50
2023-12-14T03:48:44.492Z,90.51
2023-12-14T03:51:21.744Z,90.53
2023-12-14T03:53:56.461Z,90.54
2023-12-14T03:56:31.246Z,90.55
2023-12-14T03:59:05.997Z,90.54
2023-12-14T04:01:41.961Z,90.58
2023-12-14T04:04:17.148Z,90.60
2023-12-14T04:06:52.572Z,90.62
2023-12-14T04:09:27.798Z,90.65
2023-12-14T04:12:02.422Z,90.65
2023-12-14T04:14:37.116Z,90.66
2023-12-14T04:17:12.924Z,90.68
2023-12-14T04:19:47.733Z,90.69
2023-12-14T04:22:22.501Z,90.71
2023-12-14T04:24:57.502Z,90.72
2023-12-14T04:27:32.146Z,90.70
2023-12-14T04:30:11.885Z,90.68
2023-12-14T04:32:48.981Z,90.66
2023-12-14T04:35:24.444Z,90.67
2023-12-14T04:37:59.155Z,90.66
2023-12-14T04:40:34.493Z,90.66
2023-12-14T04:43:09.237Z,90.65
2023-12-14T04:45:44.240Z,90.64
2023-12-14T04:48:19.141Z,90.63
2023-12-14T04:50:54.245Z,90.63
2023-12-14T04:53:29.118Z,90.63
2023-12-14T04:56:04.115Z,90.64
2023-12-14T04:58:38.842Z,90.62
2023-12-14T05:01:14.174Z,90.62
2023-12-14T05:03:49.055Z,90.63
2023-12-14T05:06:24.097Z,90.63
2023-12-14T05:09:00.281Z,90.62
2023-12-14T05:11:35.189Z,90.62
2023-12-14T05:14:10.057Z,90.63
2023-12-14T05:16:45.799Z,90.63
2023-12-14T05:19:21.010Z,90.62
2023-12-14T05:21:55.927Z,90.63
2023-12-14T05:24:30.650Z,90.62
2023-12-14T05:27:05.855Z,90.64
2023-12-14T05:29:40.541Z,90.64
2023-12-14T05:32:15.265Z,90.65
2023-12-14T05:34:50.113Z,90.66
2023-12-14T05:37:24.932Z,90.66
2023-12-14T05:39:59.704Z,90.65
2023-12-14T05:42:34.875Z,90.65
2023-12-14T05:45:12.785Z,90.64
2023-12-14T05:47:47.900Z,90.62
2023-12-14T05:50:28.804Z,90.63
2023-12-14T05:53:03.841Z,90.63
2023-12-14T05:55:39.687Z,90.65
2023-12-14T05:58:14.472Z,90.66
2023-12-14T06:00:49.364Z,90.66
2023-12-14T06:03:24.059Z,90.66
2023-12-14T06:05:58.803Z,90.65
2023-12-14T06:08:33.438Z,90.65
2023-12-14T06:11:08.617Z,90.63
2023-12-14T06:13:43.259Z,90.63
2023-12-14T06:16:18.008Z,90.62
2023-12-14T06:18:52.736Z,90.62
2023-12-14T06:21:29.831Z,90.61
2023-12-14T06:24:04.864Z,90.61
2023-12-14T06:26:44.452Z,90.63
2023-12-14T06:29:19.403Z,90.64
2023-12-14T06:31:54.225Z,90.65
2023-12-14T06:34:29.150Z,90.66
2023-12-14T06:37:04.220Z,90.67
2023-12-14T06:39:38.849Z,90.69
2023-12-14T06:42:14.167Z,90.70
2023-12-14T06:44:48.886Z,90.71
2023-12-14T06:47:23.588Z,90.70
2023-12-14T06:49:59.088Z,90.71
2023-12-14T06:52:36.686Z,90.71
2023-12-14T06:55:15.802Z,90.71
2023-12-14T06:57:50.476Z,90.70
2023-12-14T07:00:25.948Z,90.72
2023-12-14T07:03:00.956Z,90.73
2023-12-14T07:05:36.231Z,90.73
2023-12-14T07:08:11.166Z,90.73
2023-12-14T07:10:48.273Z,90.73
2023-12-14T07:13:23.308Z,90.74
2023-12-14T07:15:58.634Z,90.75
2023-12-14T07:18:33.743Z,90.76
2023-12-14T07:21:10.540Z,90.75
2023-12-14T07:23:45.578Z,90.76
2023-12-14T07:26:20.796Z,90.74
2023-12-14T07:28:56.216Z,90.75
2023-12-14T07:31:31.340Z,90.73
2023-12-14T07:34:06.025Z,90.73
2023-12-14T07:36:40.713Z,90.73
2023-12-14T07:39:15.393Z,90.73
2023-12-14T07:41:50.366Z,90.72
2023-12-14T07:44:26.449Z,90.72
2023-12-14T07:47:03.498Z,90.73
2023-12-14T07:49:38.767Z,90.72
2023-12-14T07:52:15.023Z,90.72
2023-12-14T07:54:49.788Z,90.72
2023-12-14T07:57:25.090Z,90.70
2023-12-14T07:59:59.730Z,90.69
2023-12-14T08:02:34.643Z,90.68
2023-12-14T08:05:10.855Z,90.68
2023-12-14T08:07:45.652Z,90.68
2023-12-14T08:10:21.385Z,90.67
2023-12-14T08:12:56.198Z,90.66
2023-12-14T08:15:31.260Z,90.64
2023-12-14T08:18:06.638Z,90.64
2023-12-14T08:20:41.698Z,90.62
2023-12-14T08:23:16.468Z,90.62
2023-12-14T08:25:51.601Z,90.59
2023-12-14T08:28:26.468Z,90.60
2023-12-14T08:31:03.486Z,90.57
2023-12-14T08:33:38.342Z,90.57
2023-12-14T08:36:17.788Z,90.55
2023-12-14T08:38:52.744Z,90.52
2023-12-14T08:41:27.617Z,90.49
2023-12-14T08:44:02.412Z,90.47
2023-12-14T08:46:46.708Z,90.47
2023-12-14T08:49:21.500Z,90.46
2023-12-14T08:51:56.755Z,90.43
2023-12-14T08:54:31.555Z,90.41
2023-12-14T08:57:07.267Z,90.40
2023-12-14T08:59:44.467Z,90.39
2023-12-14T09:02:20.066Z,90.35
2023-12-14T09:04:55.459Z,90.31
2023-12-14T09:07:30.380Z,90.27
2023-12-14T09:10:05.725Z,90.23
2023-12-14T09:12:40.482Z,90.20
2023-12-14T09:15:16.869Z,90.16
2023-12-14T09:17:51.777Z,90.10
2023-12-14T09:20:28.174Z,90.07
2023-12-14T09:23:04.887Z,90.03
2023-12-14T09:25:40.914Z,90.03
2023-12-14T09:28:16.255Z,90.01
2023-12-14T09:30:51.450Z,90.01
2023-12-14T09:33:26.501Z,90.03
2023-12-14T09:36:01.490Z,90.03
2023-12-14T09:38:37.248Z,90.02
2023-12-14T09:41:12.071Z,90.01
2023-12-14T09:43:47.568Z,90.01
2023-12-14T09:46:23.208Z,90.00
2023-12-14T09:49:00.101Z,89.96
2023-12-14T09:51:35.036Z,89.95
2023-12-14T09:54:10.018Z,89.92
2023-12-14T09:56:53.975Z,89.88
2023-12-14T09:59:28.683Z,89.82
2023-12-14T10:02:15.088Z,89.75
2023-12-14T10:04:50.642Z,89.68
2023-12-14T10:07:26.711Z,89.66
2023-12-14T10:10:15.525Z,89.64
2023-12-14T10:13:00.222Z,89.62
2023-12-14T10:15:44.863Z,89.61
2023-12-14T10:18:27.023Z,89.59
2023-12-14T10:21:01.835Z,89.56
2023-12-14T10:23:37.933Z,89.56
2023-12-14T10:26:12.605Z,89.54
2023-12-14T10:28:47.422Z,89.53
2023-12-14T10:31:22.555Z,89.48
2023-12-14T10:33:57.896Z,89.46
2023-12-14T10:36:33.268Z,89.42
2023-12-14T10:39:10.570Z,89.40
2023-12-14T10:41:46.174Z,89.39
2023-12-14T10:44:33.666Z,89.38
2023-12-14T10:47:18.006Z,89.35
2023-12-14T10:49:54.194Z,89.32
2023-12-14T10:52:29.705Z,89.27
2023-12-14T10:55:10.024Z,89.26
2023-12-14T10:57:45.828Z,89.24
2023-12-14T11:00:22.929Z,89.23
2023-12-14T11:03:00.910Z,89.23
2023-12-14T11:05:37.893Z,89.20
2023-12-14T11:08:13.760Z,89.19
2023-12-14T11:10:57.532Z,89.16
2023-12-14T11:13:35.314Z,89.15
2023-12-14T11:16:11.959Z,89.12
2023-12-14T11:18:47.758Z,89.09
2023-12-14T11:21:27.296Z,89.07
2023-12-14T11:24:07.667Z,89.04
2023-12-14T11:26:43.755Z,89.04
2023-12-14T11:29:20.385Z,89.03
2023-12-14T11:31:55.584Z,89.01
2023-12-14T11:34:31.250Z,89.01
2023-12-14T11:37:07.379Z,89.02
2023-12-14T11:39:42.507Z,89.01
2023-12-14T11:42:20.600Z,88.99
2023-12-14T11:44:55.371Z,88.98
2023-12-14T11:47:30.574Z,88.97
2023-12-14T11:50:05.917Z,88.94
2023-12-14T11:52:41.588Z,88.92
2023-12-14T11:55:18.198Z,88.90
2023-12-14T11:57:54.021Z,88.88
2023-12-14T12:00:31.939Z,88.86
2023-12-14T12:03:18.541Z,88.85
2023-12-14T12:05:55.033Z,88.84
2023-12-14T12:08:30.000Z,88.83
2023-12-14T12:11:05.145Z,88.83
2023-12-14T12:13:39.950Z,88.84
2023-12-14T12:16:17.452Z,88.84
2023-12-14T12:18:53.395Z,88.85
2023-12-14T12:21:28.417Z,88.84
2023-12-14T12:24:09.328Z,88.85
2023-12-14T12:26:49.419Z,88.83
2023-12-14T12:29:24.197Z,88.84
2023-12-14T12:31:59.017Z,88.83
2023-12-14T12:34:33.769Z,88.82
2023-12-14T12:37:09.038Z,88.85
2023-12-14T12:39:47.290Z,88.86
2023-12-14T12:42:26.535Z,88.85
2023-12-14T12:45:01.859Z,88.84
2023-12-14T12:47:36.791Z,88.83
2023-12-14T12:50:14.187Z,88.83
2023-12-14T12:52:50.764Z,88.84
2023-12-14T12:55:26.146Z,88.85
2023-12-14T12:58:06.015Z,88.85
2023-12-14T13:00:40.795Z,88.84
2023-12-14T13:03:15.837Z,88.82
2023-12-14T13:05:50.811Z,88.82
2023-12-14T13:08:25.902Z,88.82
2023-12-14T13:11:01.349Z,88.83
2023-12-14T13:13:36.123Z,88.85
2023-12-14T13:16:11.817Z,88.84
2023-12-14T13:18:47.357Z,88.85
2023-12-14T13:21:23.487Z,88.88
2023-12-14T13:23:59.251Z,88.88
2023-12-14T13:26:34.655Z,88.88
2023-12-14T13:29:09.428Z,88.88
2023-12-14T13:31:44.415Z,88.89
2023-12-14T13:34:19.618Z,88.90
2023-12-14T13:36:54.462Z,88.89
2023-12-14T13:39:29.293Z,88.89
2023-12-14T13:42:04.672Z,88.91
2023-12-14T13:44:39.433Z,88.92
2023-12-14T13:47:14.541Z,88.92
2023-12-14T13:49:50.310Z,88.94
2023-12-14T13:52:25.946Z,88.94
2023-12-14T13:55:01.914Z,88.95
2023-12-14T13:57:36.843Z,88.95
2023-12-14T14:00:15.129Z,88.95
2023-12-14T14:02:50.374Z,88.95
2023-12-14T14:05:25.824Z,88.94
2023-12-14T14:08:01.459Z,88.96
2023-12-14T14:10:36.296Z,88.96
2023-12-14T14:13:11.028Z,88.98
2023-12-14T14:15:45.962Z,88.98
2023-12-14T14:18:21.179Z,89.00
2023-12-14T14:20:56.200Z,89.00
2023-12-14T14:23:32.449Z,89.01
2023-12-14T14:26:08.313Z,89.02
2023-12-14T14:28:43.268Z,89.04
2023-12-14T14:31:18.182Z,89.03
2023-12-14T14:33:53.879Z,89.05
2023-12-14T14:36:28.949Z,89.08
2023-12-14T14:39:05.953Z,89.09
2023-12-14T14:41:40.890Z,89.12
2023-12-14T14:44:15.800Z,89.11
2023-12-14T14:46:50.602Z,89.12
2023-12-14T14:49:25.358Z,89.13
2023-12-14T14:52:00.330Z,89.15
2023-12-14T14:54:35.461Z,89.17
2023-12-14T14:57:11.070Z,89.17
2023-12-14T14:59:45.944Z,89.17
2023-12-14T15:02:20.840Z,89.19
2023-12-14T15:04:55.875Z,89.20
2023-12-14T15:07:31.667Z,89.22
2023-12-14T15:10:07.738Z,89.22
2023-12-14T15:12:42.418Z,89.23
2023-12-14T15:15:17.998Z,89.24
2023-12-14T15:17:53.012Z,89.28
2023-12-14T15:20:28.337Z,89.30
2023-12-14T15:23:06.556Z,89.31
2023-12-14T15:25:41.861Z,89.33
2023-12-14T15:28:16.800Z,89.34
2023-12-14T15:30:51.885Z,89.36
2023-12-14T15:33:27.228Z,89.38
2023-12-14T15:36:02.518Z,89.42
2023-12-14T15:38:37.181Z,89.44
2023-12-14T15:41:12.608Z,89.46
2023-12-14T15:43:47.395Z,89.49
2023-12-14T15:46:22.518Z,89.52
2023-12-14T15:48:57.281Z,89.53
2023-12-14T15:51:32.174Z,89.55
2023-12-14T15:54:07.358Z,89.56
2023-12-14T15:56:42.016Z,89.58
2023-12-14T15:59:18.142Z,89.60
2023-12-14T16:01:53.328Z,89.60
2023-12-14T16:04:28.078Z,89.63
2023-12-14T16:07:03.169Z,89.64
2023-12-14T16:09:38.077Z,89.67
2023-12-14T16:12:13.138Z,89.69
2023-12-14T16:14:48.042Z,89.70
2023-12-14T16:17:23.040Z,89.71
2023-12-14T16:19:57.968Z,89.72
2023-12-14T16:22:33.000Z,89.73
2023-12-14T16:25:11.142Z,89.74
2023-12-14T16:27:47.646Z,89.75
2023-12-14T16:30:22.389Z,89.76
2023-12-14T16:32:57.800Z,89.77
2023-12-14T16:35:33.601Z,89.80
2023-12-14T16:38:08.408Z,89.81
2023-12-14T16:40:43.387Z,89.83
2023-12-14T16:43:20.193Z,89.83
2023-12-14T16:45:55.373Z,89.84
2023-12-14T16:48:30.197Z,89.86
2023-12-14T16:51:08.120Z,89.86
2023-12-14T16:53:43.501Z,89.86
2023-12-14T16:56:20.148Z,89.86
2023-12-14T16:58:55.202Z,89.88
2023-12-14T17:01:30.641Z,89.88
2023-12-14T17:04:05.693Z,89.89
2023-12-14T17:06:43.078Z,89.90
2023-12-14T17:09:20.615Z,89.91
2023-12-14T17:11:55.845Z,89.92
2023-12-14T17:14:31.503Z,89.92
2023-12-14T17:17:07.043Z,89.93
2023-12-14T17:19:42.347Z,89.95
2023-12-14T17:22:18.342Z,89.96
2023-12-14T17:24:54.192Z,89.96
2023-12-14T17:27:30.161Z,89.97
2023-12-14T17:30:05.296Z,89.97
2023-12-14T17:32:40.716Z,89.98
2023-12-14T17:35:16.120Z,89.97
2023-12-14T17:37:51.129Z,89.99
2023-12-14T17:40:26.950Z,89.99
2023-12-14T17:43:02.256Z,89.99
2023-12-14T17:45:40.285Z,90.01
2023-12-14T17:48:16.688Z,90.00
2023-12-14T17:50:51.813Z,90.00
2023-12-14T17:53:27.134Z,90.00
2023-12-14T17:56:02.720Z,90.00
2023-12-14T17:58:37.459Z,90.00
2023-12-14T18:01:12.656Z,90.00
2023-12-14T18:03:47.615Z,90.00
2023-12-14T18:06:24.794Z,89.99
2023-12-14T18:09:00.311Z,90.00
2023-12-14T18:11:35.335Z,90.01
2023-12-14T18:14:10.502Z,90.00
2023-12-14T18:16:45.906Z,90.02
2023-12-14T18:19:21.302Z,90.03
2023-12-14T18:21:56.407Z,90.04
2023-12-14T18:24:31.464Z,90.03
2023-12-14T18:27:07.237Z,90.03
2023-12-14T18:29:44.062Z,90.03
2023-12-14T18:32:19.211Z,90.03
2023-12-14T18:34:54.497Z,90.04
2023-12-14T18:37:30.163Z,90.04
2023-12-14T18:40:05.994Z,90.06
2023-12-14T18:42:41.140Z,90.07
2023-12-14T18:45:16.860Z,90.08
2023-12-14T18:47:54.382Z,90.09
2023-12-14T18:50:31.004Z,90.09
2023-12-14T18:53:10.358Z,90.07
2023-12-14T18:55:45.720Z,90.07
2023-12-14T18:58:21.074Z,90.07
2023-12-14T19:00:57.430Z,90.11
2023-12-14T19:03:32.616Z,90.11
2023-12-14T19:06:11.524Z,90.13
2023-12-14T19:08:47.138Z,90.14
2023-12-14T19:11:24.722Z,90.15
2023-12-14T19:13:59.931Z,90.15
2023-12-14T19:16:40.889Z,90.16
2023-12-14T19:19:18.836Z,90.14
2023-12-14T19:21:55.975Z,90.15
2023-12-14T19:24:31.213Z,90.13
2023-12-14T19:27:09.600Z,90.14
2023-12-14T19:29:45.707Z,90.15
2023-12-14T19:32:21.431Z,90.17
2023-12-14T19:34:57.765Z,90.16
2023-12-14T19:37:34.305Z,90.17
2023-12-14T19:40:14.956Z,90.17
2023-12-14T19:42:50.901Z,90.18
2023-12-14T19:45:26.678Z,90.17
2023-12-14T19:48:03.447Z,90.15
2023-12-14T19:50:39.201Z,90.17
2023-12-14T19:53:17.664Z,90.18
2023-12-14T19:55:53.299Z,90.17
2023-12-14T19:58:28.928Z,90.17
2023-12-14T20:01:11.793Z,90.18
2023-12-14T20:03:48.470Z,90.19
2023-12-14T20:06:27.744Z,90.19
2023-12-14T20:09:04.663Z,90.19
2023-12-14T20:11:43.494Z,90.19
2023-12-14T20:14:20.087Z,90.21
2023-12-14T20:16:55.256Z,90.22
2023-12-14T20:19:30.543Z,90.25
2023-12-14T20:22:06.609Z,90.26
2023-12-14T20:24:43.905Z,90.28
2023-12-14T20:27:20.054Z,90.29
2023-12-14T20:29:55.781Z,90.30
2023-12-14T20:32:30.937Z,90.30
2023-12-14T20:35:06.781Z,90.30
2023-12-14T20:37:42.342Z,90.30
2023-12-14T20:40:20.014Z,90.30
2023-12-14T20:42:56.676Z,90.29
2023-12-14T20:45:34.057Z,90.29
2023-12-14T20:48:10.465Z,90.28
2023-12-14T20:50:45.562Z,90.28
2023-12-14T20:53:20.924Z,90.28
2023-12-14T20:55:56.493Z,90.28
2023-12-14T20:58:31.725Z,90.27
2023-12-14T21:01:07.500Z,90.28
2023-12-14T21:03:44.884Z,90.26
2023-12-14T21:06:22.313Z,90.25
2023-12-14T21:08:59.192Z,90.24
2023-12-14T21:11:34.127Z,90.23
2023-12-14T21:14:13.321Z,90.22
2023-12-14T21:16:51.936Z,90.21
2023-12-14T21:19:26.982Z,90.22
2023-12-14T21:22:01.785Z,90.22
2023-12-14T21:24:41.804Z,90.20
2023-12-14T21:27:34.896Z,90.20
2023-12-14T21:30:12.970Z,90.19
2023-12-14T21:32:49.673Z,90.20
2023-12-14T21:35:24.708Z,90.19
2023-12-14T21:37:59.590Z,90.19
2023-12-14T21:40:34.526Z,90.19
2023-12-14T21:43:09.252Z,90.19
2023-12-14T21:45:44.357Z,90.19
2023-12-14T21:48:19.416Z,90.19
2023-12-14T21:50:54.635Z,90.19
2023-12-14T21:53:29.728Z,90.20
2023-12-14T21:56:04.666Z,90.19
2023-12-14T21:58:39.433Z,90.19
2023-12-14T22:01:15.080Z,90.20
2023-12-14T22:03:49.816Z,90.19
2023-12-14T22:06:24.838Z,90.20
2023-12-14T22:08:59.645Z,90.20
2023-12-14T22:11:34.359Z,90.20
2023-12-14T22:14:09.757Z,90.20
2023-12-14T22:16:44.927Z,90.20
2023-12-14T22:19:20.127Z,90.20
2023-12-14T22:21:55.119Z,90.20
2023-12-14T22:24:29.959Z,90.19
2023-12-14T22:27:04.981Z,90.19
2023-12-14T22:29:40.016Z,90.18
2023-12-14T22:32:14.836Z,90.17
2023-12-14T22:34:49.653Z,90.16
2023-12-14T22:37:24.459Z,90.16
2023-12-14T22:39:59.137Z,90.13
2023-12-14T22:42:33.876Z,90.12
2023-12-14T22:45:10.537Z,90.10
2023-12-14T22:47:45.473Z,90.09
2023-12-14T22:50:20.632Z,90.10
2023-12-14T22:52:55.619Z,90.09
2023-12-14T22:55:30.311Z,90.07
2023-12-14T22:58:05.079Z,90.05
2023-12-14T23:00:40.165Z,90.05
2023-12-14T23:03:15.393Z,90.04
2023-12-14T23:05:50.335Z,90.03
2023-12-14T23:08:25.402Z,90.02
2023-12-14T23:11:00.419Z,90.03
2023-12-14T23:13:35.374Z,90.02
2023-12-14T23:16:11.812Z,90.01
2023-12-14T23:18:46.694Z,90.01
2023-12-14T23:21:21.709Z,90.01
2023-12-14T23:23:56.505Z,90.00
2023-12-14T23:26:31.497Z,90.00
2023-12-14T23:29:06.513Z,90.01
2023-12-14T23:31:41.451Z,90.03
2023-12-14T23:34:16.347Z,90.04
2023-12-14T23:36:51.799Z,90.05
2023-12-14T23:39:26.644Z,90.05
2023-12-14T23:42:01.627Z,90.06
2023-12-14T23:44:36.848Z,90.06
2023-12-14T23:47:12.754Z,90.06
2023-12-14T23:49:48.002Z,90.07
2023-12-14T23:52:23.058Z,90.06
2023-12-14T23:54:58.022Z,90.07
2023-12-14T23:57:33.398Z,90.08
